sensor_id;sensor_type;location;lat;lon;timestamp;P1;durP1;ratioP1;P2;durP2;ratioP2
11121;SDS011;5615;49.304;10.576;2023-09-19T00:00:05;4.90;;;1.57;;
11121;SDS011;5615;49.304;10.576;2023-09-19T00:02:33;1.90;;;1.33;;
11121;SDS011;5615;49.304;10.576;2023-09-19T00:05:01;2.80;;;1.50;;
11121;SDS011;5615;49.304;10.576;2023-09-19T00:07:28;3.17;;;1.70;;
11121;SDS011;5615;49.304;10.576;2023-09-19T00:09:55;2.83;;;1.70;;
11121;SDS011;5615;49.304;10.576;2023-09-19T00:12:22;2.07;;;1.40;;
11121;SDS011;5615;49.304;10.576;2023-09-19T00:14:50;3.05;;;1.50;;
11121;SDS011;5615;49.304;10.576;2023-09-19T00:17:17;1.98;;;1.38;;
11121;SDS011;5615;49.304;10.576;2023-09-19T00:19:44;4.05;;;1.50;;
11121;SDS011;5615;49.304;10.576;2023-09-19T00:22:11;2.73;;;1.60;;
11121;SDS011;5615;49.304;10.576;2023-09-19T00:24:40;2.63;;;1.43;;
11121;SDS011;5615;49.304;10.576;2023-09-19T00:27:07;4.20;;;1.50;;
11121;SDS011;5615;49.304;10.576;2023-09-19T00:29:34;2.50;;;1.40;;
11121;SDS011;5615;49.304;10.576;2023-09-19T00:32:02;3.67;;;1.50;;
11121;SDS011;5615;49.304;10.576;2023-09-19T00:34:30;2.30;;;1.80;;
11121;SDS011;5615;49.304;10.576;2023-09-19T00:36:59;1.87;;;1.47;;
11121;SDS011;5615;49.304;10.576;2023-09-19T00:39:25;2.33;;;1.70;;
11121;SDS011;5615;49.304;10.576;2023-09-19T00:41:52;2.60;;;1.70;;
11121;SDS011;5615;49.304;10.576;2023-09-19T00:44:19;3.30;;;1.67;;
11121;SDS011;5615;49.304;10.576;2023-09-19T00:46:48;2.03;;;1.50;;
11121;SDS011;5615;49.304;10.576;2023-09-19T00:49:16;2.17;;;1.53;;
11121;SDS011;5615;49.304;10.576;2023-09-19T00:51:47;3.30;;;1.67;;
11121;SDS011;5615;49.304;10.576;2023-09-19T00:54:14;4.80;;;1.67;;
11121;SDS011;5615;49.304;10.576;2023-09-19T00:56:43;4.60;;;1.48;;
11121;SDS011;5615;49.304;10.576;2023-09-19T00:59:11;2.33;;;1.40;;
11121;SDS011;5615;49.304;10.576;2023-09-19T01:01:37;1.73;;;1.60;;
11121;SDS011;5615;49.304;10.576;2023-09-19T01:04:05;4.20;;;1.58;;
11121;SDS011;5615;49.304;10.576;2023-09-19T01:06:33;3.00;;;1.53;;
11121;SDS011;5615;49.304;10.576;2023-09-19T01:09:01;3.43;;;1.43;;
11121;SDS011;5615;49.304;10.576;2023-09-19T01:11:31;2.57;;;1.53;;
11121;SDS011;5615;49.304;10.576;2023-09-19T01:14:07;2.33;;;1.50;;
11121;SDS011;5615;49.304;10.576;2023-09-19T01:16:42;1.83;;;1.50;;
11121;SDS011;5615;49.304;10.576;2023-09-19T01:19:29;2.40;;;1.37;;
11121;SDS011;5615;49.304;10.576;2023-09-19T01:22:31;1.70;;;1.50;;
11121;SDS011;5615;49.304;10.576;2023-09-19T01:25:17;2.25;;;1.50;;
11121;SDS011;5615;49.304;10.576;2023-09-19T01:28:06;2.33;;;1.50;;
11121;SDS011;5615;49.304;10.576;2023-09-19T01:30:52;3.47;;;1.70;;
11121;SDS011;5615;49.304;10.576;2023-09-19T01:33:23;6.30;;;1.70;;
11121;SDS011;5615;49.304;10.576;2023-09-19T01:35:50;3.00;;;1.57;;
11121;SDS011;5615;49.304;10.576;2023-09-19T01:38:17;2.00;;;1.70;;
11121;SDS011;5615;49.304;10.576;2023-09-19T01:40:47;1.63;;;1.47;;
11121;SDS011;5615;49.304;10.576;2023-09-19T01:43:21;1.80;;;1.42;;
11121;SDS011;5615;49.304;10.576;2023-09-19T01:45:57;2.30;;;1.60;;
11121;SDS011;5615;49.304;10.576;2023-09-19T01:48:35;2.60;;;1.50;;
11121;SDS011;5615;49.304;10.576;2023-09-19T01:51:07;4.00;;;1.90;;
11121;SDS011;5615;49.304;10.576;2023-09-19T01:53:40;2.70;;;1.50;;
11121;SDS011;5615;49.304;10.576;2023-09-19T01:56:12;3.92;;;1.75;;
11121;SDS011;5615;49.304;10.576;2023-09-19T01:58:45;1.50;;;1.40;;
11121;SDS011;5615;49.304;10.576;2023-09-19T02:01:18;2.92;;;1.50;;
11121;SDS011;5615;49.304;10.576;2023-09-19T02:03:48;1.70;;;1.60;;
11121;SDS011;5615;49.304;10.576;2023-09-19T02:06:16;2.33;;;1.60;;
11121;SDS011;5615;49.304;10.576;2023-09-19T02:08:44;4.43;;;1.73;;
11121;SDS011;5615;49.304;10.576;2023-09-19T02:11:12;2.65;;;1.77;;
11121;SDS011;5615;49.304;10.576;2023-09-19T02:13:38;3.73;;;1.57;;
11121;SDS011;5615;49.304;10.576;2023-09-19T02:16:06;2.83;;;1.70;;
11121;SDS011;5615;49.304;10.576;2023-09-19T02:18:35;2.37;;;1.60;;
11121;SDS011;5615;49.304;10.576;2023-09-19T02:21:02;3.00;;;1.60;;
11121;SDS011;5615;49.304;10.576;2023-09-19T02:23:31;2.50;;;1.80;;
11121;SDS011;5615;49.304;10.576;2023-09-19T02:25:58;4.03;;;1.70;;
11121;SDS011;5615;49.304;10.576;2023-09-19T02:28:25;2.53;;;1.90;;
11121;SDS011;5615;49.304;10.576;2023-09-19T02:30:55;2.70;;;1.80;;
11121;SDS011;5615;49.304;10.576;2023-09-19T02:33:22;2.03;;;1.73;;
11121;SDS011;5615;49.304;10.576;2023-09-19T02:35:50;3.47;;;2.03;;
11121;SDS011;5615;49.304;10.576;2023-09-19T02:38:22;3.08;;;2.00;;
11121;SDS011;5615;49.304;10.576;2023-09-19T02:40:49;3.08;;;1.70;;
11121;SDS011;5615;49.304;10.576;2023-09-19T02:43:16;3.47;;;1.92;;
11121;SDS011;5615;49.304;10.576;2023-09-19T02:45:44;3.22;;;2.00;;
11121;SDS011;5615;49.304;10.576;2023-09-19T02:48:11;3.87;;;2.07;;
11121;SDS011;5615;49.304;10.576;2023-09-19T02:50:38;4.73;;;2.10;;
11121;SDS011;5615;49.304;10.576;2023-09-19T02:53:06;3.73;;;1.90;;
11121;SDS011;5615;49.304;10.576;2023-09-19T02:55:35;4.10;;;1.93;;
11121;SDS011;5615;49.304;10.576;2023-09-19T02:58:03;3.47;;;2.00;;
11121;SDS011;5615;49.304;10.576;2023-09-19T03:00:32;3.83;;;2.20;;
11121;SDS011;5615;49.304;10.576;2023-09-19T03:03:00;2.10;;;1.90;;
11121;SDS011;5615;49.304;10.576;2023-09-19T03:05:28;4.87;;;1.90;;
11121;SDS011;5615;49.304;10.576;2023-09-19T03:07:55;2.73;;;2.07;;
11121;SDS011;5615;49.304;10.576;2023-09-19T03:10:27;4.23;;;2.03;;
11121;SDS011;5615;49.304;10.576;2023-09-19T03:12:54;4.53;;;2.00;;
11121;SDS011;5615;49.304;10.576;2023-09-19T03:15:21;3.20;;;2.10;;
11121;SDS011;5615;49.304;10.576;2023-09-19T03:17:48;3.40;;;1.90;;
11121;SDS011;5615;49.304;10.576;2023-09-19T03:20:17;3.67;;;2.30;;
11121;SDS011;5615;49.304;10.576;2023-09-19T03:22:43;3.93;;;2.50;;
11121;SDS011;5615;49.304;10.576;2023-09-19T03:25:10;4.93;;;2.17;;
11121;SDS011;5615;49.304;10.576;2023-09-19T03:27:39;3.00;;;1.97;;
11121;SDS011;5615;49.304;10.576;2023-09-19T03:30:06;2.13;;;1.90;;
11121;SDS011;5615;49.304;10.576;2023-09-19T03:32:34;5.60;;;2.30;;
11121;SDS011;5615;49.304;10.576;2023-09-19T03:35:01;2.37;;;2.00;;
11121;SDS011;5615;49.304;10.576;2023-09-19T03:37:30;3.63;;;2.10;;
11121;SDS011;5615;49.304;10.576;2023-09-19T03:39:56;3.23;;;2.23;;
11121;SDS011;5615;49.304;10.576;2023-09-19T03:42:23;4.10;;;2.47;;
11121;SDS011;5615;49.304;10.576;2023-09-19T03:44:52;2.83;;;1.93;;
11121;SDS011;5615;49.304;10.576;2023-09-19T03:47:20;3.93;;;1.93;;
11121;SDS011;5615;49.304;10.576;2023-09-19T03:49:46;5.70;;;2.10;;
11121;SDS011;5615;49.304;10.576;2023-09-19T03:52:13;3.63;;;2.30;;
11121;SDS011;5615;49.304;10.576;2023-09-19T03:54:40;3.80;;;2.10;;
11121;SDS011;5615;49.304;10.576;2023-09-19T03:57:08;1.80;;;1.67;;
11121;SDS011;5615;49.304;10.576;2023-09-19T03:59:35;4.17;;;2.50;;
11121;SDS011;5615;49.304;10.576;2023-09-19T04:02:03;3.33;;;2.20;;
11121;SDS011;5615;49.304;10.576;2023-09-19T04:04:36;4.37;;;2.17;;
11121;SDS011;5615;49.304;10.576;2023-09-19T04:07:03;4.05;;;2.25;;
11121;SDS011;5615;49.304;10.576;2023-09-19T04:09:30;2.87;;;2.20;;
11121;SDS011;5615;49.304;10.576;2023-09-19T04:11:56;2.93;;;2.10;;
11121;SDS011;5615;49.304;10.576;2023-09-19T04:14:23;2.70;;;1.80;;
11121;SDS011;5615;49.304;10.576;2023-09-19T04:16:49;3.20;;;2.30;;
11121;SDS011;5615;49.304;10.576;2023-09-19T04:19:17;3.50;;;2.20;;
11121;SDS011;5615;49.304;10.576;2023-09-19T04:21:46;3.03;;;2.17;;
11121;SDS011;5615;49.304;10.576;2023-09-19T04:24:12;3.20;;;2.00;;
11121;SDS011;5615;49.304;10.576;2023-09-19T04:26:39;6.53;;;2.30;;
11121;SDS011;5615;49.304;10.576;2023-09-19T04:29:07;3.70;;;2.10;;
11121;SDS011;5615;49.304;10.576;2023-09-19T04:31:36;2.33;;;2.00;;
11121;SDS011;5615;49.304;10.576;2023-09-19T04:34:05;3.17;;;1.90;;
11121;SDS011;5615;49.304;10.576;2023-09-19T04:36:36;3.37;;;1.90;;
11121;SDS011;5615;49.304;10.576;2023-09-19T04:39:03;2.20;;;2.00;;
11121;SDS011;5615;49.304;10.576;2023-09-19T04:41:32;2.77;;;2.10;;
11121;SDS011;5615;49.304;10.576;2023-09-19T04:43:59;2.97;;;2.33;;
11121;SDS011;5615;49.304;10.576;2023-09-19T04:46:26;3.77;;;2.10;;
11121;SDS011;5615;49.304;10.576;2023-09-19T04:48:53;3.30;;;2.20;;
11121;SDS011;5615;49.304;10.576;2023-09-19T04:51:19;3.70;;;2.07;;
11121;SDS011;5615;49.304;10.576;2023-09-19T04:53:48;3.60;;;2.07;;
11121;SDS011;5615;49.304;10.576;2023-09-19T04:56:14;5.00;;;1.90;;
11121;SDS011;5615;49.304;10.576;2023-09-19T04:58:41;4.40;;;2.10;;
11121;SDS011;5615;49.304;10.576;2023-09-19T05:01:07;2.58;;;1.90;;
11121;SDS011;5615;49.304;10.576;2023-09-19T05:03:36;2.40;;;1.80;;
11121;SDS011;5615;49.304;10.576;2023-09-19T05:06:03;3.03;;;2.40;;
11121;SDS011;5615;49.304;10.576;2023-09-19T05:08:30;3.30;;;2.25;;
11121;SDS011;5615;49.304;10.576;2023-09-19T05:10:58;3.03;;;2.30;;
11121;SDS011;5615;49.304;10.576;2023-09-19T05:13:28;4.17;;;2.27;;
11121;SDS011;5615;49.304;10.576;2023-09-19T05:15:59;4.60;;;2.57;;
11121;SDS011;5615;49.304;10.576;2023-09-19T05:18:26;3.23;;;2.10;;
11121;SDS011;5615;49.304;10.576;2023-09-19T05:20:53;3.30;;;2.10;;
11121;SDS011;5615;49.304;10.576;2023-09-19T05:23:20;3.57;;;2.30;;
11121;SDS011;5615;49.304;10.576;2023-09-19T05:25:46;3.20;;;2.00;;
11121;SDS011;5615;49.304;10.576;2023-09-19T05:28:15;4.77;;;2.23;;
11121;SDS011;5615;49.304;10.576;2023-09-19T05:30:41;3.10;;;2.30;;
11121;SDS011;5615;49.304;10.576;2023-09-19T05:33:09;3.80;;;2.40;;
11121;SDS011;5615;49.304;10.576;2023-09-19T05:35:36;4.87;;;2.43;;
11121;SDS011;5615;49.304;10.576;2023-09-19T05:38:04;4.25;;;2.67;;
11121;SDS011;5615;49.304;10.576;2023-09-19T05:40:33;5.30;;;2.38;;
11121;SDS011;5615;49.304;10.576;2023-09-19T05:43:01;3.00;;;2.50;;
11121;SDS011;5615;49.304;10.576;2023-09-19T05:45:30;3.53;;;2.30;;
11121;SDS011;5615;49.304;10.576;2023-09-19T05:48:05;4.83;;;2.20;;
11121;SDS011;5615;49.304;10.576;2023-09-19T05:50:34;5.67;;;2.10;;
11121;SDS011;5615;49.304;10.576;2023-09-19T05:53:01;5.40;;;2.53;;
11121;SDS011;5615;49.304;10.576;2023-09-19T05:55:29;2.97;;;2.67;;
11121;SDS011;5615;49.304;10.576;2023-09-19T05:57:55;2.92;;;2.60;;
11121;SDS011;5615;49.304;10.576;2023-09-19T06:00:23;3.43;;;2.60;;
11121;SDS011;5615;49.304;10.576;2023-09-19T06:02:54;3.20;;;2.22;;
11121;SDS011;5615;49.304;10.576;2023-09-19T06:05:21;3.63;;;2.43;;
11121;SDS011;5615;49.304;10.576;2023-09-19T06:07:49;3.25;;;2.63;;
11121;SDS011;5615;49.304;10.576;2023-09-19T06:10:17;3.00;;;2.70;;
11121;SDS011;5615;49.304;10.576;2023-09-19T06:12:45;5.25;;;2.95;;
11121;SDS011;5615;49.304;10.576;2023-09-19T06:15:13;5.33;;;2.70;;
11121;SDS011;5615;49.304;10.576;2023-09-19T06:17:42;4.87;;;3.10;;
11121;SDS011;5615;49.304;10.576;2023-09-19T06:20:10;4.82;;;3.08;;
11121;SDS011;5615;49.304;10.576;2023-09-19T06:22:40;5.97;;;2.60;;
11121;SDS011;5615;49.304;10.576;2023-09-19T06:25:07;3.60;;;2.95;;
11121;SDS011;5615;49.304;10.576;2023-09-19T06:27:36;5.17;;;2.90;;
11121;SDS011;5615;49.304;10.576;2023-09-19T06:30:03;4.40;;;3.20;;
11121;SDS011;5615;49.304;10.576;2023-09-19T06:32:31;6.10;;;3.22;;
11121;SDS011;5615;49.304;10.576;2023-09-19T06:34:58;4.32;;;2.90;;
11121;SDS011;5615;49.304;10.576;2023-09-19T06:37:27;3.42;;;3.13;;
11121;SDS011;5615;49.304;10.576;2023-09-19T06:39:54;3.40;;;3.10;;
11121;SDS011;5615;49.304;10.576;2023-09-19T06:42:22;4.32;;;3.28;;
11121;SDS011;5615;49.304;10.576;2023-09-19T06:44:48;6.90;;;3.45;;
11121;SDS011;5615;49.304;10.576;2023-09-19T06:47:15;4.40;;;3.30;;
11121;SDS011;5615;49.304;10.576;2023-09-19T06:49:42;8.05;;;3.78;;
11121;SDS011;5615;49.304;10.576;2023-09-19T06:52:09;4.07;;;3.15;;
11121;SDS011;5615;49.304;10.576;2023-09-19T06:54:38;4.93;;;3.33;;
11121;SDS011;5615;49.304;10.576;2023-09-19T06:57:04;5.07;;;3.08;;
11121;SDS011;5615;49.304;10.576;2023-09-19T06:59:34;3.72;;;2.92;;
11121;SDS011;5615;49.304;10.576;2023-09-19T07:02:02;3.50;;;2.90;;
11121;SDS011;5615;49.304;10.576;2023-09-19T07:04:31;4.05;;;2.80;;
11121;SDS011;5615;49.304;10.576;2023-09-19T07:06:57;5.82;;;3.00;;
11121;SDS011;5615;49.304;10.576;2023-09-19T07:09:24;5.70;;;2.85;;
11121;SDS011;5615;49.304;10.576;2023-09-19T07:11:53;4.32;;;3.10;;
11121;SDS011;5615;49.304;10.576;2023-09-19T07:14:20;5.63;;;2.75;;
11121;SDS011;5615;49.304;10.576;2023-09-19T07:16:46;5.18;;;3.00;;
11121;SDS011;5615;49.304;10.576;2023-09-19T07:19:14;3.45;;;2.75;;
11121;SDS011;5615;49.304;10.576;2023-09-19T07:21:41;2.92;;;2.63;;
11121;SDS011;5615;49.304;10.576;2023-09-19T07:24:08;3.80;;;2.70;;
11121;SDS011;5615;49.304;10.576;2023-09-19T07:26:35;3.60;;;2.58;;
11121;SDS011;5615;49.304;10.576;2023-09-19T07:29:03;5.38;;;2.83;;
11121;SDS011;5615;49.304;10.576;2023-09-19T07:31:31;4.68;;;2.70;;
11121;SDS011;5615;49.304;10.576;2023-09-19T07:33:58;3.63;;;2.88;;
11121;SDS011;5615;49.304;10.576;2023-09-19T07:36:25;5.93;;;2.67;;
11121;SDS011;5615;49.304;10.576;2023-09-19T07:38:54;6.10;;;3.00;;
11121;SDS011;5615;49.304;10.576;2023-09-19T07:41:22;4.00;;;2.97;;
11121;SDS011;5615;49.304;10.576;2023-09-19T07:43:50;5.13;;;2.70;;
11121;SDS011;5615;49.304;10.576;2023-09-19T07:46:18;4.85;;;2.58;;
11121;SDS011;5615;49.304;10.576;2023-09-19T07:48:45;5.50;;;2.88;;
11121;SDS011;5615;49.304;10.576;2023-09-19T07:51:13;3.83;;;2.90;;
11121;SDS011;5615;49.304;10.576;2023-09-19T07:53:41;4.93;;;2.72;;
11121;SDS011;5615;49.304;10.576;2023-09-19T07:56:08;3.15;;;2.80;;
11121;SDS011;5615;49.304;10.576;2023-09-19T07:58:38;4.53;;;2.80;;
11121;SDS011;5615;49.304;10.576;2023-09-19T08:01:06;3.10;;;2.50;;
11121;SDS011;5615;49.304;10.576;2023-09-19T08:03:36;5.55;;;2.72;;
11121;SDS011;5615;49.304;10.576;2023-09-19T08:06:05;3.22;;;2.40;;
11121;SDS011;5615;49.304;10.576;2023-09-19T08:08:33;3.85;;;2.45;;
11121;SDS011;5615;49.304;10.576;2023-09-19T08:11:02;5.65;;;2.70;;
11121;SDS011;5615;49.304;10.576;2023-09-19T08:13:35;4.18;;;2.70;;
11121;SDS011;5615;49.304;10.576;2023-09-19T08:16:02;2.90;;;2.42;;
11121;SDS011;5615;49.304;10.576;2023-09-19T08:18:29;4.93;;;3.03;;
11121;SDS011;5615;49.304;10.576;2023-09-19T08:20:57;3.83;;;3.13;;
11121;SDS011;5615;49.304;10.576;2023-09-19T08:23:25;3.45;;;2.67;;
11121;SDS011;5615;49.304;10.576;2023-09-19T08:25:55;3.08;;;2.50;;
11121;SDS011;5615;49.304;10.576;2023-09-19T08:28:22;5.22;;;2.60;;
11121;SDS011;5615;49.304;10.576;2023-09-19T08:30:49;3.83;;;2.10;;
11121;SDS011;5615;49.304;10.576;2023-09-19T08:33:16;4.35;;;2.25;;
11121;SDS011;5615;49.304;10.576;2023-09-19T08:35:42;6.05;;;2.50;;
11121;SDS011;5615;49.304;10.576;2023-09-19T08:38:12;3.88;;;2.30;;
11121;SDS011;5615;49.304;10.576;2023-09-19T08:40:39;6.35;;;2.20;;
11121;SDS011;5615;49.304;10.576;2023-09-19T08:43:07;3.55;;;2.35;;
11121;SDS011;5615;49.304;10.576;2023-09-19T08:45:35;3.83;;;2.22;;
11121;SDS011;5615;49.304;10.576;2023-09-19T08:48:07;3.30;;;2.28;;
11121;SDS011;5615;49.304;10.576;2023-09-19T08:50:43;3.47;;;2.22;;
11121;SDS011;5615;49.304;10.576;2023-09-19T08:53:16;5.93;;;2.15;;
11121;SDS011;5615;49.304;10.576;2023-09-19T08:55:54;4.35;;;2.20;;
11121;SDS011;5615;49.304;10.576;2023-09-19T08:58:22;5.90;;;2.38;;
11121;SDS011;5615;49.304;10.576;2023-09-19T09:00:54;3.55;;;2.50;;
11121;SDS011;5615;49.304;10.576;2023-09-19T09:03:22;4.90;;;2.47;;
11121;SDS011;5615;49.304;10.576;2023-09-19T09:05:49;4.28;;;2.17;;
11121;SDS011;5615;49.304;10.576;2023-09-19T09:08:18;4.00;;;2.05;;
11121;SDS011;5615;49.304;10.576;2023-09-19T09:10:46;2.58;;;2.33;;
11121;SDS011;5615;49.304;10.576;2023-09-19T09:13:13;4.30;;;2.55;;
11121;SDS011;5615;49.304;10.576;2023-09-19T09:15:41;3.22;;;2.60;;
11121;SDS011;5615;49.304;10.576;2023-09-19T09:18:09;4.43;;;2.78;;
11121;SDS011;5615;49.304;10.576;2023-09-19T09:20:36;3.72;;;2.80;;
11121;SDS011;5615;49.304;10.576;2023-09-19T09:23:03;5.50;;;3.15;;
11121;SDS011;5615;49.304;10.576;2023-09-19T09:28:18;5.82;;;2.63;;
11121;SDS011;5615;49.304;10.576;2023-09-19T09:30:46;4.35;;;2.90;;
11121;SDS011;5615;49.304;10.576;2023-09-19T09:33:14;3.83;;;2.50;;
11121;SDS011;5615;49.304;10.576;2023-09-19T09:35:51;2.75;;;2.40;;
11121;SDS011;5615;49.304;10.576;2023-09-19T09:38:18;3.97;;;2.88;;
11121;SDS011;5615;49.304;10.576;2023-09-19T09:40:47;3.28;;;2.60;;
11121;SDS011;5615;49.304;10.576;2023-09-19T09:43:26;4.03;;;2.90;;
11121;SDS011;5615;49.304;10.576;2023-09-19T09:46:07;3.53;;;2.95;;
11121;SDS011;5615;49.304;10.576;2023-09-19T09:48:35;2.90;;;2.25;;
11121;SDS011;5615;49.304;10.576;2023-09-19T09:51:04;2.63;;;1.73;;
11121;SDS011;5615;49.304;10.576;2023-09-19T09:53:33;2.28;;;1.70;;
11121;SDS011;5615;49.304;10.576;2023-09-19T09:56:02;2.67;;;1.83;;
11121;SDS011;5615;49.304;10.576;2023-09-19T09:58:31;1.52;;;1.42;;
11121;SDS011;5615;49.304;10.576;2023-09-19T10:00:58;3.50;;;1.60;;
11121;SDS011;5615;49.304;10.576;2023-09-19T10:03:35;3.35;;;1.80;;
11121;SDS011;5615;49.304;10.576;2023-09-19T10:06:06;3.42;;;1.70;;
11121;SDS011;5615;49.304;10.576;2023-09-19T10:08:59;3.40;;;1.73;;
11121;SDS011;5615;49.304;10.576;2023-09-19T10:11:37;2.40;;;1.80;;
11121;SDS011;5615;49.304;10.576;2023-09-19T10:14:08;3.15;;;1.73;;
11121;SDS011;5615;49.304;10.576;2023-09-19T10:16:37;2.70;;;1.70;;
11121;SDS011;5615;49.304;10.576;2023-09-19T10:19:07;3.78;;;1.90;;
11121;SDS011;5615;49.304;10.576;2023-09-19T10:21:34;3.20;;;1.60;;
11121;SDS011;5615;49.304;10.576;2023-09-19T10:24:03;3.13;;;1.95;;
11121;SDS011;5615;49.304;10.576;2023-09-19T10:26:34;2.53;;;2.00;;
11121;SDS011;5615;49.304;10.576;2023-09-19T10:29:03;2.35;;;1.85;;
11121;SDS011;5615;49.304;10.576;2023-09-19T10:31:34;2.92;;;1.80;;
11121;SDS011;5615;49.304;10.576;2023-09-19T10:34:04;2.83;;;1.80;;
11121;SDS011;5615;49.304;10.576;2023-09-19T10:36:34;3.95;;;2.00;;
11121;SDS011;5615;49.304;10.576;2023-09-19T10:39:03;2.15;;;1.77;;
11121;SDS011;5615;49.304;10.576;2023-09-19T10:41:34;3.50;;;1.95;;
11121;SDS011;5615;49.304;10.576;2023-09-19T10:44:04;2.78;;;1.73;;
11121;SDS011;5615;49.304;10.576;2023-09-19T10:46:31;4.18;;;1.98;;
11121;SDS011;5615;49.304;10.576;2023-09-19T10:48:58;2.80;;;1.92;;
11121;SDS011;5615;49.304;10.576;2023-09-19T10:51:27;4.93;;;1.67;;
11121;SDS011;5615;49.304;10.576;2023-09-19T10:53:59;2.72;;;1.88;;
11121;SDS011;5615;49.304;10.576;2023-09-19T10:56:32;4.82;;;1.90;;
11121;SDS011;5615;49.304;10.576;2023-09-19T10:59:06;3.72;;;1.73;;
11121;SDS011;5615;49.304;10.576;2023-09-19T11:01:41;3.58;;;1.85;;
11121;SDS011;5615;49.304;10.576;2023-09-19T11:04:26;4.32;;;1.95;;
11121;SDS011;5615;49.304;10.576;2023-09-19T11:07:01;4.28;;;1.88;;
11121;SDS011;5615;49.304;10.576;2023-09-19T11:09:43;3.95;;;2.03;;
11121;SDS011;5615;49.304;10.576;2023-09-19T11:12:12;2.90;;;2.10;;
11121;SDS011;5615;49.304;10.576;2023-09-19T11:14:41;3.10;;;1.80;;
11121;SDS011;5615;49.304;10.576;2023-09-19T11:20:20;3.92;;;1.77;;
11121;SDS011;5615;49.304;10.576;2023-09-19T11:23:17;3.65;;;1.92;;
11121;SDS011;5615;49.304;10.576;2023-09-19T11:25:47;2.40;;;1.83;;
11121;SDS011;5615;49.304;10.576;2023-09-19T11:28:27;2.38;;;1.80;;
11121;SDS011;5615;49.304;10.576;2023-09-19T11:30:57;4.93;;;2.00;;
11121;SDS011;5615;49.304;10.576;2023-09-19T11:33:25;7.10;;;2.25;;
11121;SDS011;5615;49.304;10.576;2023-09-19T11:35:58;6.07;;;2.03;;
11121;SDS011;5615;49.304;10.576;2023-09-19T11:41:37;2.92;;;2.00;;
11121;SDS011;5615;49.304;10.576;2023-09-19T11:47:02;2.85;;;1.73;;
11121;SDS011;5615;49.304;10.576;2023-09-19T11:49:32;3.13;;;1.60;;
11121;SDS011;5615;49.304;10.576;2023-09-19T11:51:59;3.67;;;1.90;;
11121;SDS011;5615;49.304;10.576;2023-09-19T11:54:30;4.03;;;1.88;;
11121;SDS011;5615;49.304;10.576;2023-09-19T11:56:57;4.20;;;1.90;;
11121;SDS011;5615;49.304;10.576;2023-09-19T11:59:26;2.35;;;1.80;;
11121;SDS011;5615;49.304;10.576;2023-09-19T12:01:55;4.95;;;1.48;;
11121;SDS011;5615;49.304;10.576;2023-09-19T12:04:34;4.20;;;1.73;;
11121;SDS011;5615;49.304;10.576;2023-09-19T12:07:03;3.45;;;1.98;;
11121;SDS011;5615;49.304;10.576;2023-09-19T12:09:35;3.75;;;2.03;;
11121;SDS011;5615;49.304;10.576;2023-09-19T12:12:05;3.35;;;1.98;;
11121;SDS011;5615;49.304;10.576;2023-09-19T12:14:32;2.72;;;1.98;;
11121;SDS011;5615;49.304;10.576;2023-09-19T12:17:00;4.40;;;1.63;;
11121;SDS011;5615;49.304;10.576;2023-09-19T12:19:28;5.05;;;1.88;;
11121;SDS011;5615;49.304;10.576;2023-09-19T12:22:00;4.85;;;2.05;;
11121;SDS011;5615;49.304;10.576;2023-09-19T12:24:30;4.18;;;2.08;;
11121;SDS011;5615;49.304;10.576;2023-09-19T12:27:00;2.83;;;1.83;;
11121;SDS011;5615;49.304;10.576;2023-09-19T12:29:30;2.08;;;1.73;;
11121;SDS011;5615;49.304;10.576;2023-09-19T12:31:58;3.65;;;1.77;;
11121;SDS011;5615;49.304;10.576;2023-09-19T12:34:29;3.20;;;2.03;;
11121;SDS011;5615;49.304;10.576;2023-09-19T12:37:07;3.40;;;1.92;;
11121;SDS011;5615;49.304;10.576;2023-09-19T12:39:42;3.00;;;1.88;;
11121;SDS011;5615;49.304;10.576;2023-09-19T12:42:13;2.90;;;1.70;;
11121;SDS011;5615;49.304;10.576;2023-09-19T12:44:41;2.97;;;2.00;;
11121;SDS011;5615;49.304;10.576;2023-09-19T12:47:10;3.45;;;1.90;;
11121;SDS011;5615;49.304;10.576;2023-09-19T12:52:37;2.97;;;2.17;;
11121;SDS011;5615;49.304;10.576;2023-09-19T12:55:04;2.88;;;1.83;;
11121;SDS011;5615;49.304;10.576;2023-09-19T12:57:32;2.65;;;1.80;;
11121;SDS011;5615;49.304;10.576;2023-09-19T12:59:59;7.97;;;2.13;;
11121;SDS011;5615;49.304;10.576;2023-09-19T13:02:26;2.50;;;1.60;;
11121;SDS011;5615;49.304;10.576;2023-09-19T13:04:53;3.28;;;1.63;;
11121;SDS011;5615;49.304;10.576;2023-09-19T13:07:41;2.50;;;1.77;;
11121;SDS011;5615;49.304;10.576;2023-09-19T13:10:14;3.50;;;1.90;;
11121;SDS011;5615;49.304;10.576;2023-09-19T13:12:42;2.85;;;1.80;;
11121;SDS011;5615;49.304;10.576;2023-09-19T13:15:13;2.65;;;1.83;;
11121;SDS011;5615;49.304;10.576;2023-09-19T13:17:44;2.35;;;1.80;;
11121;SDS011;5615;49.304;10.576;2023-09-19T13:20:20;3.63;;;1.90;;
11121;SDS011;5615;49.304;10.576;2023-09-19T13:22:53;2.33;;;1.70;;
11121;SDS011;5615;49.304;10.576;2023-09-19T13:25:23;2.33;;;1.60;;
11121;SDS011;5615;49.304;10.576;2023-09-19T13:27:51;3.72;;;1.85;;
11121;SDS011;5615;49.304;10.576;2023-09-19T13:30:21;4.53;;;1.65;;
11121;SDS011;5615;49.304;10.576;2023-09-19T13:32:50;2.13;;;1.65;;
11121;SDS011;5615;49.304;10.576;2023-09-19T13:35:18;3.60;;;1.60;;
11121;SDS011;5615;49.304;10.576;2023-09-19T13:37:46;2.22;;;1.88;;
11121;SDS011;5615;49.304;10.576;2023-09-19T13:40:15;2.42;;;1.70;;
11121;SDS011;5615;49.304;10.576;2023-09-19T13:42:42;2.78;;;1.70;;
11121;SDS011;5615;49.304;10.576;2023-09-19T13:45:09;2.42;;;1.77;;
11121;SDS011;5615;49.304;10.576;2023-09-19T13:47:37;3.15;;;1.83;;
11121;SDS011;5615;49.304;10.576;2023-09-19T13:50:04;2.95;;;1.77;;
11121;SDS011;5615;49.304;10.576;2023-09-19T13:52:33;2.10;;;1.58;;
11121;SDS011;5615;49.304;10.576;2023-09-19T13:54:59;2.65;;;1.73;;
11121;SDS011;5615;49.304;10.576;2023-09-19T13:57:27;3.92;;;1.70;;
11121;SDS011;5615;49.304;10.576;2023-09-19T13:59:55;2.63;;;2.08;;
11121;SDS011;5615;49.304;10.576;2023-09-19T14:02:22;5.03;;;1.70;;
11121;SDS011;5615;49.304;10.576;2023-09-19T14:04:49;2.50;;;1.80;;
11121;SDS011;5615;49.304;10.576;2023-09-19T14:07:16;4.13;;;1.88;;
11121;SDS011;5615;49.304;10.576;2023-09-19T14:09:45;2.42;;;1.73;;
11121;SDS011;5615;49.304;10.576;2023-09-19T14:12:12;4.68;;;2.00;;
11121;SDS011;5615;49.304;10.576;2023-09-19T14:14:40;2.97;;;2.00;;
11121;SDS011;5615;49.304;10.576;2023-09-19T14:17:07;2.28;;;1.73;;
11121;SDS011;5615;49.304;10.576;2023-09-19T14:19:34;2.35;;;1.70;;
11121;SDS011;5615;49.304;10.576;2023-09-19T14:22:01;2.47;;;1.88;;
11121;SDS011;5615;49.304;10.576;2023-09-19T14:24:32;2.90;;;1.50;;
11121;SDS011;5615;49.304;10.576;2023-09-19T14:26:59;3.60;;;1.60;;
11121;SDS011;5615;49.304;10.576;2023-09-19T14:29:25;3.33;;;1.60;;
11121;SDS011;5615;49.304;10.576;2023-09-19T14:31:54;2.95;;;1.67;;
11121;SDS011;5615;49.304;10.576;2023-09-19T14:34:22;2.88;;;1.60;;
11121;SDS011;5615;49.304;10.576;2023-09-19T14:36:49;3.72;;;1.50;;
11121;SDS011;5615;49.304;10.576;2023-09-19T14:39:16;2.80;;;1.75;;
11121;SDS011;5615;49.304;10.576;2023-09-19T14:41:44;2.25;;;1.60;;
11121;SDS011;5615;49.304;10.576;2023-09-19T14:44:11;2.88;;;1.65;;
11121;SDS011;5615;49.304;10.576;2023-09-19T14:46:38;4.13;;;1.75;;
11121;SDS011;5615;49.304;10.576;2023-09-19T14:49:06;1.70;;;1.35;;
11121;SDS011;5615;49.304;10.576;2023-09-19T14:51:35;2.40;;;1.55;;
11121;SDS011;5615;49.304;10.576;2023-09-19T14:54:04;2.10;;;1.70;;
11121;SDS011;5615;49.304;10.576;2023-09-19T14:56:33;2.50;;;1.70;;
11121;SDS011;5615;49.304;10.576;2023-09-19T14:59:00;3.28;;;1.50;;
11121;SDS011;5615;49.304;10.576;2023-09-19T15:01:27;3.55;;;1.60;;
11121;SDS011;5615;49.304;10.576;2023-09-19T15:03:54;2.15;;;1.90;;
11121;SDS011;5615;49.304;10.576;2023-09-19T15:06:22;2.45;;;1.83;;
11121;SDS011;5615;49.304;10.576;2023-09-19T15:08:48;3.85;;;1.67;;
11121;SDS011;5615;49.304;10.576;2023-09-19T15:11:15;3.22;;;2.55;;
11121;SDS011;5615;49.304;10.576;2023-09-19T15:13:43;5.70;;;2.10;;